Time;durP1;ratioP1;P1;durP2;ratioP2;P2;SDS_P1;SDS_P2;PMS_P1;PMS_P2;Temp;Humidity;BMP_temperature;BMP_pressure;BME280_temperature;BME280_humidity;BME280_pressure;Samples;Min_cycle;Max_cycle;Signal;HPM_P1;HPM_P2
2021/03/17 00:00:16;;;;;;;;;;;;;;;20.70;40.58;103005.03;3095439;28;115212;-60
2021/03/17 00:01:47;;;;;;;;;;;;;;;20.67;40.42;103017.59;3100576;28;114134;-60
2021/03/17 00:03:18;;;;;;;;;;;;;;;20.68;40.52;103016.50;3092759;28;115176;-60
2021/03/17 00:04:50;;;;;;;;;;;;;;;20.64;40.53;103020.94;3092512;28;114047;-59
2021/03/17 00:06:21;;;;;;;;;;;;;;;20.65;40.81;103021.81;3096231;28;114364;-60
2021/03/17 00:07:52;;;;;;;;;;;;;;;20.64;40.44;103023.75;3095710;28;116334;-59
2021/03/17 00:09:24;;;;;;;;;;;;;;;20.62;40.79;103016.72;3096582;28;115224;-60
2021/03/17 00:10:55;;;;;;;;;;;;;;;20.62;40.64;103020.38;3093726;28;115131;-60
2021/03/17 00:12:26;;;;;;;;;;;;;;;20.60;40.40;103018.91;3094219;28;115140;-60
2021/03/17 00:13:57;;;;;;;;;;;;;;;20.59;40.57;103015.25;3104597;28;114712;-60
2021/03/17 00:15:31;;;;;;;;;;;;;;;20.60;40.65;103021.72;3092704;28;115254;-60
2021/03/17 00:17:02;;;;;;;;;;;;;;;20.59;40.41;103023.69;3086053;28;116603;-60
2021/03/17 00:18:34;;;;;;;;;;;;;;;20.58;40.43;103016.34;3091229;28;115172;-60
2021/03/17 00:20:07;;;;;;;;;;;;;;;20.57;40.45;103027.88;3092480;28;115073;-60
2021/03/17 00:21:38;;;;;;;;;;;;;;;20.57;40.66;103036.28;3098587;28;115683;-60
2021/03/17 00:23:10;;;;;;;;;;;;;;;20.56;40.72;103028.97;3095418;28;115784;-59
2021/03/17 00:24:41;;;;;;;;;;;;;;;20.54;40.69;103026.41;3108268;27;115888;-60
2021/03/17 00:26:12;;;;;;;;;;;;;;;20.53;40.62;103026.69;3101852;27;115879;-59
2021/03/17 00:27:44;;;;;;;;;;;;;;;20.54;40.76;103034.84;3105286;28;115764;-60
2021/03/17 00:29:15;;;;;;;;;;;;;;;20.53;40.87;103027.53;3090625;28;114817;-60
2021/03/17 00:30:46;;;;;;;;;;;;;;;20.54;40.52;103039.59;3092041;28;115698;-60
2021/03/17 00:32:18;;;;;;;;;;;;;;;20.52;40.61;103034.25;3093391;28;116068;-60
2021/03/17 00:33:50;;;;;;;;;;;;;;;20.52;40.74;103033.41;3101256;28;116931;-61
2021/03/17 00:35:21;;;;;;;;;;;;;;;20.49;41.08;103040.38;3098669;28;116114;-60
2021/03/17 00:36:52;;;;;;;;;;;;;;;20.51;41.07;103037.31;3105433;28;114708;-61
2021/03/17 00:38:23;;;;;;;;;;;;;;;20.48;41.08;103035.03;3098383;28;115840;-60
2021/03/17 00:39:55;;;;;;;;;;;;;;;20.46;41.15;103029.66;3093474;28;115702;-60
2021/03/17 00:41:26;;;;;;;;;;;;;;;20.47;40.78;103024.91;3093014;28;115677;-60
2021/03/17 00:42:57;;;;;;;;;;;;;;;20.43;40.90;103024.56;3095131;28;115839;-60
2021/03/17 00:44:28;;;;;;;;;;;;;;;20.43;41.12;103027.38;3096151;28;113985;-60
2021/03/17 00:46:00;;;;;;;;;;;;;;;20.42;41.06;103034.94;3089375;28;113973;-60
2021/03/17 00:47:33;;;;;;;;;;;;;;;20.42;40.88;103032.13;3095783;28;113653;-61
2021/03/17 00:49:05;;;;;;;;;;;;;;;20.40;41.00;103027.88;3120074;27;114019;-59
2021/03/17 00:50:37;;;;;;;;;;;;;;;20.40;41.19;103030.69;3106246;27;113796;-58
2021/03/17 00:52:08;;;;;;;;;;;;;;;20.40;41.38;103039.97;3113649;27;114181;-59
2021/03/17 00:53:40;;;;;;;;;;;;;;;20.39;41.12;103031.81;3104958;27;113812;-59
2021/03/17 00:55:12;;;;;;;;;;;;;;;20.38;41.22;103030.09;3098251;28;114001;-59
2021/03/17 00:56:43;;;;;;;;;;;;;;;20.35;41.35;103034.25;3105345;28;114179;-59
2021/03/17 00:58:15;;;;;;;;;;;;;;;20.36;41.09;103035.97;3086810;28;113750;-59
2021/03/17 00:59:46;;;;;;;;;;;;;;;20.37;41.09;103039.63;3114157;27;114151;-60
2021/03/17 01:01:18;;;;;;;;;;;;;;;20.34;41.36;103038.19;3102311;27;114132;-59
2021/03/17 01:02:50;;;;;;;;;;;;;;;20.36;41.43;103035.97;3094128;28;113999;-58
2021/03/17 01:04:22;;;;;;;;;;;;;;;20.36;41.20;103040.72;3099740;28;114344;-58
2021/03/17 01:05:53;;;;;;;;;;;;;;;20.33;41.25;103039.28;3093510;28;115102;-59
2021/03/17 01:07:25;;;;;;;;;;;;;;;20.34;41.10;103041.00;3087806;28;115067;-59
2021/03/17 01:08:56;;;;;;;;;;;;;;;20.32;41.47;103045.16;3091677;28;115278;-60
2021/03/17 01:10:28;;;;;;;;;;;;;;;20.32;41.32;103045.16;3091497;28;114971;-60
2021/03/17 01:12:00;;;;;;;;;;;;;;;20.32;41.34;103039.53;3093112;28;114181;-60
2021/03/17 01:13:46;;;;;;;;;;;;;;;20.32;41.60;103040.41;3106167;27;115108;-60
2021/03/17 01:15:19;;;;;;;;;;;;;;;20.31;41.56;103051.88;3102672;27;115034;-60
2021/03/17 01:16:50;;;;;;;;;;;;;;;20.30;41.55;103051.06;3112411;27;115091;-60
2021/03/17 01:18:21;;;;;;;;;;;;;;;20.29;41.71;103052.13;3086499;28;115157;-59
2021/03/17 01:19:53;;;;;;;;;;;;;;;20.29;41.70;103051.25;3089755;28;114344;-60
2021/03/17 01:21:24;;;;;;;;;;;;;;;20.30;41.42;103061.41;3085351;28;115635;-59
2021/03/17 01:22:57;;;;;;;;;;;;;;;20.30;41.34;103064.22;3089897;28;114141;-59
2021/03/17 01:24:28;;;;;;;;;;;;;;;20.29;41.22;103054.06;3086511;28;115095;-60
2021/03/17 01:25:59;;;;;;;;;;;;;;;20.27;41.29;103056.25;3108904;27;115534;-60
2021/03/17 01:27:31;;;;;;;;;;;;;;;20.26;41.52;103061.03;3090847;27;115894;-59
2021/03/17 01:29:02;;;;;;;;;;;;;;;20.26;41.57;103060.19;3111254;27;115555;-59
2021/03/17 01:30:36;;;;;;;;;;;;;;;20.25;41.47;103055.69;3091271;28;115862;-59
2021/03/17 01:32:07;;;;;;;;;;;;;;;20.24;41.52;103051.16;3101504;27;115564;-60
2021/03/17 01:33:38;;;;;;;;;;;;;;;20.23;41.51;103055.06;3090331;28;116575;-59
2021/03/17 01:35:12;;;;;;;;;;;;;;;20.24;41.37;103063.25;3084735;28;115788;-59
2021/03/17 01:36:43;;;;;;;;;;;;;;;20.23;41.55;103063.50;3109341;27;114821;-59
2021/03/17 01:38:14;;;;;;;;;;;;;;;20.23;41.45;103064.34;3090975;28;116299;-59
2021/03/17 01:39:46;;;;;;;;;;;;;;;20.21;41.57;103060.13;3100164;28;115750;-61
2021/03/17 01:41:18;;;;;;;;;;;;;;;20.21;41.57;103057.31;3090192;28;114559;-59
2021/03/17 01:42:50;;;;;;;;;;;;;;;20.21;41.39;103060.13;3090447;28;115775;-60
2021/03/17 01:44:21;;;;;;;;;;;;;;;20.20;41.58;103055.59;3109993;27;115852;-59
2021/03/17 01:45:52;;;;;;;;;;;;;;;20.20;41.58;103058.41;3103415;27;114691;-60
2021/03/17 01:47:24;;;;;;;;;;;;;;;20.19;41.45;103067.94;3101363;28;115769;-61
2021/03/17 01:48:56;;;;;;;;;;;;;;;20.19;41.46;103057.56;3077112;28;113945;-59
2021/03/17 01:50:29;;;;;;;;;;;;;;;20.19;41.53;103067.94;3083618;28;113905;-59
2021/03/17 01:52:01;;;;;;;;;;;;;;;20.17;41.26;103065.38;3111335;27;114368;-59
2021/03/17 01:53:33;;;;;;;;;;;;;;;20.17;41.32;103070.16;3090368;27;114281;-59
2021/03/17 01:55:05;;;;;;;;;;;;;;;20.17;41.43;103070.16;3079764;28;114269;-60
2021/03/17 01:56:37;;;;;;;;;;;;;;;20.17;41.46;103068.16;3082188;28;114087;-59
2021/03/17 01:58:09;;;;;;;;;;;;;;;20.18;41.63;103069.03;3109901;27;113751;-59
2021/03/17 01:59:40;;;;;;;;;;;;;;;20.17;41.56;103070.16;3095295;28;113956;-60
2021/03/17 02:01:12;;;;;;;;;;;;;;;20.17;41.79;103067.34;3109642;27;114126;-60
2021/03/17 02:02:49;;;;;;;;;;;;;;;20.19;41.53;103070.72;3090152;28;113706;-59
2021/03/17 02:04:20;;;;;;;;;;;;;;;20.16;41.77;103068.44;3085995;28;113868;-60
2021/03/17 02:05:51;;;;;;;;;;;;;;;20.13;41.65;103064.16;3085836;28;113807;-60
2021/03/17 02:07:23;;;;;;;;;;;;;;;20.12;41.90;103059.69;3086587;28;113683;-60
2021/03/17 02:08:54;;;;;;;;;;;;;;;20.13;41.88;103058.56;3097705;28;114560;-60
2021/03/17 02:10:25;;;;;;;;;;;;;;;20.13;41.65;103052.09;3095695;28;114258;-60
2021/03/17 02:12:08;;;;;;;;;;;;;;;20.13;41.80;103057.69;3091514;28;115894;-60
2021/03/17 02:13:49;;;;;;;;;;;;;;;20.12;41.74;103050.41;3104261;27;114407;-60
2021/03/17 02:15:34;;;;;;;;;;;;;;;20.11;41.83;103055.19;3091626;28;115586;-60
2021/03/17 02:17:09;;;;;;;;;;;;;;;20.11;42.00;103051.50;3083376;28;115032;-60
2021/03/17 02:18:45;;;;;;;;;;;;;;;20.11;41.98;103054.31;3083830;28;115911;-61
2021/03/17 02:20:28;;;;;;;;;;;;;;;20.10;42.13;103056.28;3111398;27;114938;-60
2021/03/17 02:21:59;;;;;;;;;;;;;;;20.10;42.21;103059.06;3089474;28;115108;-60
2021/03/17 02:23:37;;;;;;;;;;;;;;;20.11;42.18;103057.13;3086960;28;115216;-59
2021/03/17 02:25:18;;;;;;;;;;;;;;;20.10;41.89;103058.22;3104950;27;115009;-59
2021/03/17 02:27:01;;;;;;;;;;;;;;;20.10;42.27;103055.41;3098499;27;114281;-59
2021/03/17 02:28:42;;;;;;;;;;;;;;;20.08;42.08;103064.06;3087539;28;115438;-59
2021/03/17 02:30:23;;;;;;;;;;;;;;;20.08;41.93;103054.84;3082610;28;115244;-59
2021/03/17 02:32:04;;;;;;;;;;;;;;;20.05;42.17;103058.97;3110622;27;115542;-59
2021/03/17 02:33:45;;;;;;;;;;;;;;;20.05;42.46;103056.19;3102374;27;115157;-60
2021/03/17 02:35:19;;;;;;;;;;;;;;;20.06;42.16;103052.28;3085936;28;114926;-59
2021/03/17 02:36:56;;;;;;;;;;;;;;;20.06;42.60;103062.66;3084227;28;114652;-59
2021/03/17 02:38:29;;;;;;;;;;;;;;;20.04;42.50;103060.09;3085577;28;114654;-60
2021/03/17 02:40:00;;;;;;;;;;;;;;;20.04;42.32;103062.03;3096092;28;114556;-61
2021/03/17 02:41:33;;;;;;;;;;;;;;;20.03;42.43;103064.03;3089595;28;115777;-60
2021/03/17 02:43:08;;;;;;;;;;;;;;;20.02;42.41;103062.31;3087207;28;115874;-60
2021/03/17 02:44:55;;;;;;;;;;;;;;;20.02;42.26;103061.47;3110241;27;115893;-60
2021/03/17 02:46:28;;;;;;;;;;;;;;;20.01;42.38;103065.34;3085813;28;115742;-60
2021/03/17 02:48:04;;;;;;;;;;;;;;;19.98;42.08;103061.97;3085421;28;115996;-60
2021/03/17 02:49:38;;;;;;;;;;;;;;;20.02;42.36;103067.06;3108180;27;115693;-59
2021/03/17 02:51:14;;;;;;;;;;;;;;;20.02;42.19;103062.31;3097698;28;115661;-60
2021/03/17 02:52:47;;;;;;;;;;;;;;;19.98;42.30;103047.94;3095609;28;115739;-60
2021/03/17 02:54:19;;;;;;;;;;;;;;;19.98;42.51;103047.09;3089514;28;114723;-60
2021/03/17 02:55:53;;;;;;;;;;;;;;;19.97;42.37;103045.38;3078890;28;116158;-59
2021/03/17 02:57:25;;;;;;;;;;;;;;;19.97;42.38;103036.97;3080882;28;113879;-60
2021/03/17 02:58:59;;;;;;;;;;;;;;;19.96;42.30;103036.09;3085248;28;113879;-60
2021/03/17 03:00:30;;;;;;;;;;;;;;;19.95;42.30;103033.53;3096806;28;113921;-60
2021/03/17 03:02:02;;;;;;;;;;;;;;;19.94;42.01;103043.91;3091688;28;113869;-59
2021/03/17 03:03:35;;;;;;;;;;;;;;;19.93;42.10;103027.34;3097109;28;113835;-59
2021/03/17 03:05:07;;;;;;;;;;;;;;;19.91;42.29;103035.16;3089990;28;114182;-60
2021/03/17 03:06:41;;;;;;;;;;;;;;;19.92;42.07;103037.72;3110100;27;113903;-59
2021/03/17 03:08:14;;;;;;;;;;;;;;;19.91;42.04;103036.00;3092099;28;113735;-60
2021/03/17 03:09:46;;;;;;;;;;;;;;;19.91;42.33;103043.56;3085103;28;113916;-60
2021/03/17 03:11:19;;;;;;;;;;;;;;;19.90;42.11;103039.91;3077614;28;113785;-59
2021/03/17 03:12:51;;;;;;;;;;;;;;;19.89;42.07;103037.38;3107393;28;113853;-59
2021/03/17 03:14:23;;;;;;;;;;;;;;;19.89;42.21;103041.03;3094241;28;114085;-59
2021/03/17 03:16:01;;;;;;;;;;;;;;;19.89;42.10;103037.38;3085020;28;113753;-59
2021/03/17 03:17:33;;;;;;;;;;;;;;;19.89;42.03;103037.38;3087901;28;114153;-59
2021/03/17 03:19:06;;;;;;;;;;;;;;;19.87;42.11;103037.63;3104541;27;114908;-59
2021/03/17 03:20:38;;;;;;;;;;;;;;;19.85;42.09;103031.41;3091081;28;116699;-60
2021/03/17 03:22:11;;;;;;;;;;;;;;;19.86;42.36;103041.53;3085197;28;116591;-61
2021/03/17 03:23:43;;;;;;;;;;;;;;;19.84;42.52;103035.34;3094299;28;115233;-60
2021/03/17 03:25:15;;;;;;;;;;;;;;;19.83;42.29;103032.78;3084032;28;116279;-60
2021/03/17 03:26:48;;;;;;;;;;;;;;;19.85;42.35;103039.00;3085349;28;115199;-61
2021/03/17 03:28:21;;;;;;;;;;;;;;;19.83;42.17;103046.81;3108083;27;113918;-60
2021/03/17 03:29:53;;;;;;;;;;;;;;;19.82;42.51;103043.16;3095449;28;115134;-60
2021/03/17 03:31:25;;;;;;;;;;;;;;;19.81;42.62;103041.44;3088667;28;115078;-60
2021/03/17 03:32:57;;;;;;;;;;;;;;;19.84;42.16;103038.16;3096740;28;115363;-60
2021/03/17 03:34:28;;;;;;;;;;;;;;;19.83;42.53;103042.03;3085049;28;115355;-60
2021/03/17 03:35:59;;;;;;;;;;;;;;;19.80;42.25;103045.38;3085042;28;115114;-60
2021/03/17 03:37:31;;;;;;;;;;;;;;;19.79;42.28;103046.47;3108085;27;116484;-60
2021/03/17 03:39:03;;;;;;;;;;;;;;;19.81;42.10;103054.59;3096472;28;115798;-60
2021/03/17 03:40:34;;;;;;;;;;;;;;;19.78;42.00;103044.75;3100599;28;115854;-60
2021/03/17 03:42:06;;;;;;;;;;;;;;;19.77;42.29;103043.03;3071599;28;114918;-60
2021/03/17 03:43:37;;;;;;;;;;;;;;;19.78;42.38;103043.91;3081286;28;115967;-61
2021/03/17 03:45:10;;;;;;;;;;;;;;;19.75;42.41;103042.47;3095825;28;115666;-61
2021/03/17 03:46:41;;;;;;;;;;;;;;;19.75;42.27;103050.88;3084599;28;115780;-60
2021/03/17 03:48:13;;;;;;;;;;;;;;;19.76;42.32;103049.75;3092041;28;115751;-60
2021/03/17 03:49:44;;;;;;;;;;;;;;;19.74;42.38;103048.31;3085269;28;115934;-60
2021/03/17 03:51:19;;;;;;;;;;;;;;;19.75;42.11;103055.63;3085090;28;115696;-60
2021/03/17 03:52:58;;;;;;;;;;;;;;;19.72;42.35;103059.78;3084038;28;115693;-60
2021/03/17 03:54:35;;;;;;;;;;;;;;;19.70;42.47;103062.00;3096377;28;114790;-60
2021/03/17 03:56:09;;;;;;;;;;;;;;;19.74;42.29;103067.94;3104355;27;114542;-60
2021/03/17 03:57:45;;;;;;;;;;;;;;;19.72;42.27;103067.34;3086693;28;116388;-60
2021/03/17 03:59:25;;;;;;;;;;;;;;;19.70;42.19;103064.81;3085739;28;116207;-60
2021/03/17 04:00:59;;;;;;;;;;;;;;;19.71;42.34;103069.31;3093932;28;116092;-60
2021/03/17 04:02:32;;;;;;;;;;;;;;;19.70;42.22;103066.75;3091551;28;115742;-60
2021/03/17 04:04:08;;;;;;;;;;;;;;;19.69;42.63;103068.69;3101766;27;113958;-60
2021/03/17 04:05:40;;;;;;;;;;;;;;;19.66;42.66;103069.22;3089039;28;114290;-59
2021/03/17 04:07:14;;;;;;;;;;;;;;;19.67;42.63;103068.09;3085828;28;113739;-58
2021/03/17 04:08:48;;;;;;;;;;;;;;;19.67;42.89;103062.47;3097382;28;114021;-58
2021/03/17 04:10:22;;;;;;;;;;;;;;;19.67;42.65;103065.28;3117328;27;113669;-60
2021/03/17 04:11:56;;;;;;;;;;;;;;;19.65;42.71;103061.91;3090362;28;113768;-58
2021/03/17 04:13:29;;;;;;;;;;;;;;;19.66;42.80;103066.41;3104633;28;114500;-58
2021/03/17 04:15:00;;;;;;;;;;;;;;;19.64;42.58;103062.13;3090365;28;113746;-59
2021/03/17 04:16:32;;;;;;;;;;;;;;;19.64;42.62;103063.00;3082834;28;113978;-58
2021/03/17 04:18:07;;;;;;;;;;;;;;;19.61;42.74;103063.50;3105336;27;113988;-57
2021/03/17 04:19:40;;;;;;;;;;;;;;;19.61;42.90;103066.31;3070128;28;114152;-58
2021/03/17 04:21:16;;;;;;;;;;;;;;;19.61;42.74;103071.06;3099573;27;114131;-59
2021/03/17 04:22:48;;;;;;;;;;;;;;;19.60;42.75;103075.81;3091265;28;114034;-58
2021/03/17 04:24:20;;;;;;;;;;;;;;;19.59;42.71;103073.25;3113789;27;113937;-58
2021/03/17 04:25:53;;;;;;;;;;;;;;;19.59;42.53;103079.72;3110172;27;114170;-59
2021/03/17 04:27:26;;;;;;;;;;;;;;;19.61;42.67;103082.28;3088118;28;115197;-59
2021/03/17 04:28:58;;;;;;;;;;;;;;;19.60;42.74;103084.22;3084292;28;115089;-59
2021/03/17 04:30:29;;;;;;;;;;;;;;;19.59;42.51;103096.53;3093566;28;116214;-59
2021/03/17 04:32:01;;;;;;;;;;;;;;;19.58;42.91;103092.03;3085783;28;115217;-59
2021/03/17 04:33:33;;;;;;;;;;;;;;;19.59;42.70;103095.69;3115952;27;115085;-59
2021/03/17 04:35:06;;;;;;;;;;;;;;;19.57;42.77;103098.75;3102737;27;115278;-60
2021/03/17 04:36:38;;;;;;;;;;;;;;;19.56;42.73;103091.44;3079087;28;115144;-59
2021/03/17 04:38:10;;;;;;;;;;;;;;;19.56;42.90;103091.44;3104931;27;115452;-60
2021/03/17 04:39:41;;;;;;;;;;;;;;;19.56;42.80;103096.19;3104458;27;115177;-60
2021/03/17 04:41:13;;;;;;;;;;;;;;;19.56;42.83;103097.06;3091832;28;114043;-59
2021/03/17 04:42:45;;;;;;;;;;;;;;;19.56;42.46;103097.06;3117858;27;115452;-60
2021/03/17 04:44:16;;;;;;;;;;;;;;;19.52;42.70;103099.50;3100728;27;115768;-60
2021/03/17 04:45:49;;;;;;;;;;;;;;;19.53;42.72;103094.75;3088178;28;115057;-60
2021/03/17 04:47:20;;;;;;;;;;;;;;;19.53;42.59;103097.56;3084247;28;115207;-60
2021/03/17 04:48:53;;;;;;;;;;;;;;;19.51;42.73;103088.53;3072137;28;115787;-59
2021/03/17 04:50:26;;;;;;;;;;;;;;;19.50;42.50;103096.09;3084616;28;115807;-59
2021/03/17 04:51:58;;;;;;;;;;;;;;;19.51;42.52;103095.00;3106443;27;115041;-59
2021/03/17 04:53:29;;;;;;;;;;;;;;;19.48;42.67;103101.09;3091714;27;116127;-60
2021/03/17 04:55:01;;;;;;;;;;;;;;;19.50;42.79;103095.22;3078150;28;115718;-60
2021/03/17 04:56:34;;;;;;;;;;;;;;;19.49;42.90;103096.31;3102861;27;115708;-59
2021/03/17 04:58:08;;;;;;;;;;;;;;;19.48;43.12;103091.84;3092328;28;115622;-60
2021/03/17 04:59:40;;;;;;;;;;;;;;;19.48;42.89;103094.66;3092029;28;115841;-60
2021/03/17 05:01:13;;;;;;;;;;;;;;;19.45;42.55;103101.59;3078409;28;115854;-59
2021/03/17 05:02:49;;;;;;;;;;;;;;;19.45;42.77;103097.94;3091898;28;114743;-59
2021/03/17 05:04:21;;;;;;;;;;;;;;;19.46;42.82;103091.22;3119517;27;116504;-59
2021/03/17 05:05:54;;;;;;;;;;;;;;;19.45;42.63;103086.72;3091429;27;115734;-60
2021/03/17 05:07:27;;;;;;;;;;;;;;;19.43;42.78;103083.28;3099747;28;115853;-61
2021/03/17 05:08:59;;;;;;;;;;;;;;;19.43;42.80;103086.09;3094856;28;113812;-60
2021/03/17 05:10:33;;;;;;;;;;;;;;;19.42;42.89;103081.59;3085771;28;113935;-60
2021/03/17 05:12:06;;;;;;;;;;;;;;;19.42;42.73;103079.63;3102465;28;113896;-60
2021/03/17 05:13:38;;;;;;;;;;;;;;;19.41;42.94;103085.47;3085822;28;113765;-60
2021/03/17 05:15:10;;;;;;;;;;;;;;;19.40;42.87;103079.00;3085719;28;113787;-60
2021/03/17 05:16:46;;;;;;;;;;;;;;;19.40;42.79;103076.22;3095375;28;114042;-59
2021/03/17 05:18:18;;;;;;;;;;;;;;;19.40;42.67;103079.00;3087424;28;114014;-60
2021/03/17 05:19:49;;;;;;;;;;;;;;;19.40;43.00;103080.97;3095796;28;114197;-60
2021/03/17 05:21:21;;;;;;;;;;;;;;;19.40;42.80;103086.56;3078445;28;114012;-61
2021/03/17 05:22:53;;;;;;;;;;;;;;;19.41;42.79;103085.47;3090822;28;114504;-60
2021/03/17 05:24:24;;;;;;;;;;;;;;;19.44;42.93;103085.84;3083766;28;113816;-59
2021/03/17 05:25:57;;;;;;;;;;;;;;;19.48;42.85;103097.44;3084088;28;113829;-60
2021/03/17 05:27:29;;;;;;;;;;;;;;;19.52;43.02;103095.84;3095446;28;114218;-60
2021/03/17 05:29:00;;;;;;;;;;;;;;;19.54;43.00;103088.88;3094600;28;113900;-60
2021/03/17 05:30:34;;;;;;;;;;;;;;;19.56;42.83;103091.44;3091925;28;113873;-61
2021/03/17 05:32:08;;;;;;;;;;;;;;;19.59;43.01;103095.69;3080516;28;115861;-61
2021/03/17 05:33:39;;;;;;;;;;;;;;;19.63;42.67;103099.69;3083029;28;114026;-60
2021/03/17 05:35:11;;;;;;;;;;;;;;;19.67;42.99;103106.53;3083530;28;115218;-60
2021/03/17 05:36:42;;;;;;;;;;;;;;;19.70;43.12;103104.06;3083048;28;115526;-60
2021/03/17 05:38:13;;;;;;;;;;;;;;;19.73;43.22;103097.94;3090743;28;115262;-60
2021/03/17 05:39:44;;;;;;;;;;;;;;;19.77;43.05;103089.88;3118784;27;115414;-61
2021/03/17 05:41:16;;;;;;;;;;;;;;;19.81;43.23;103086.31;3091424;27;115587;-60
2021/03/17 05:42:47;;;;;;;;;;;;;;;19.86;43.37;103092.03;3096008;28;114991;-60
2021/03/17 05:44:19;;;;;;;;;;;;;;;19.91;43.55;103094.06;3089815;28;115179;-60
2021/03/17 05:45:51;;;;;;;;;;;;;;;19.95;43.72;103093.31;3083710;28;115221;-60
2021/03/17 05:47:22;;;;;;;;;;;;;;;20.02;43.47;103103.53;3105492;27;115126;-60
2021/03/17 05:48:55;;;;;;;;;;;;;;;20.06;43.58;103101.94;3073448;28;114980;-60
2021/03/17 05:50:26;;;;;;;;;;;;;;;20.12;43.53;103093.38;3072450;28;115840;-60
2021/03/17 05:51:58;;;;;;;;;;;;;;;20.17;43.33;103096.22;3098187;28;115157;-60
2021/03/17 05:53:29;;;;;;;;;;;;;;;20.23;43.10;103095.22;3107793;27;116120;-60
2021/03/17 05:55:00;;;;;;;;;;;;;;;20.28;43.31;103086.03;3081528;27;114984;-60
2021/03/17 05:56:31;;;;;;;;;;;;;;;20.34;42.98;103079.47;3078700;28;114566;-60
2021/03/17 05:58:03;;;;;;;;;;;;;;;20.39;43.28;103079.53;3084406;28;116299;-60
2021/03/17 05:59:35;;;;;;;;;;;;;;;20.45;43.13;103084.13;3083310;28;117487;-59
2021/03/17 06:01:06;;;;;;;;;;;;;;;20.51;43.71;103079.44;3091924;28;115763;-60
2021/03/17 06:02:39;;;;;;;;;;;;;;;20.57;44.90;103089.66;3094262;28;115833;-59
2021/03/17 06:04:12;;;;;;;;;;;;;;;20.63;44.41;103088.59;3086464;28;114663;-59
2021/03/17 06:05:45;;;;;;;;;;;;;;;20.67;43.88;103090.66;3108162;27;114991;-60
2021/03/17 06:07:21;;;;;;;;;;;;;;;20.72;43.68;103095.50;3087190;28;115798;-59
2021/03/17 06:08:55;;;;;;;;;;;;;;;20.77;43.57;103101.19;3101648;27;115750;-59
2021/03/17 06:10:27;;;;;;;;;;;;;;;20.81;43.26;103096.75;3086405;28;115801;-59
2021/03/17 06:11:59;;;;;;;;;;;;;;;20.84;43.16;103087.81;3087699;28;115753;-59
2021/03/17 06:13:32;;;;;;;;;;;;;;;20.90;42.84;103075.53;3086580;28;116578;-60
2021/03/17 06:15:06;;;;;;;;;;;;;;;20.95;42.60;103083.19;3084831;28;114190;-59
2021/03/17 06:16:39;;;;;;;;;;;;;;;21.00;42.54;103080.44;3106331;27;113966;-59
2021/03/17 06:18:21;;;;;;;;;;;;;;;21.04;42.56;103087.25;3089314;27;113996;-59
2021/03/17 06:19:55;;;;;;;;;;;;;;;21.08;42.36;103077.19;3092731;28;114223;-59
2021/03/17 06:21:27;;;;;;;;;;;;;;;21.13;42.26;103080.09;3097244;27;113990;-59
2021/03/17 06:23:00;;;;;;;;;;;;;;;21.16;42.16;103082.41;3091757;28;114228;-59
2021/03/17 06:24:34;;;;;;;;;;;;;;;21.21;41.82;103091.75;3100462;28;114021;-60
2021/03/17 06:26:05;;;;;;;;;;;;;;;21.24;41.84;103081.94;3099117;28;113825;-60
2021/03/17 06:27:37;;;;;;;;;;;;;;;21.29;41.94;103082.88;3096309;28;113772;-60
2021/03/17 06:29:09;;;;;;;;;;;;;;;21.33;41.55;103087.97;3114522;27;113986;-60
2021/03/17 06:30:42;;;;;;;;;;;;;;;21.37;41.59;103077.88;3109127;27;113819;-60
2021/03/17 06:32:14;;;;;;;;;;;;;;;21.41;41.32;103076.25;3097492;28;114135;-59
2021/03/17 06:33:46;;;;;;;;;;;;;;;21.45;41.26;103083.91;3094785;28;113815;-60
2021/03/17 06:35:20;;;;;;;;;;;;;;;21.49;41.39;103072.97;3110692;28;114476;-59
2021/03/17 06:36:55;;;;;;;;;;;;;;;21.52;40.94;103073.31;3091959;28;115350;-60
2021/03/17 06:38:27;;;;;;;;;;;;;;;21.55;40.98;103074.72;3082173;28;115353;-60
2021/03/17 06:39:59;;;;;;;;;;;;;;;21.59;40.78;103081.53;3083930;28;117787;-60
2021/03/17 06:41:41;;;;;;;;;;;;;;;21.62;40.57;103081.03;3086221;28;115140;-60
2021/03/17 06:43:13;;;;;;;;;;;;;;;21.66;40.83;103068.97;3090150;28;115307;-60
2021/03/17 06:44:54;;;;;;;;;;;;;;;21.70;40.93;103077.72;3115170;27;114230;-60
2021/03/17 06:46:26;;;;;;;;;;;;;;;21.73;40.58;103085.63;3112063;27;114509;-60
2021/03/17 06:48:12;;;;;;;;;;;;;;;21.77;41.18;103085.94;3094728;28;114377;-60
2021/03/17 06:49:48;;;;;;;;;;;;;;;21.81;40.91;103092.72;3097143;28;115045;-60
2021/03/17 06:51:21;;;;;;;;;;;;;;;21.83;40.70;103097.00;3106072;28;116375;-61
2021/03/17 06:52:53;;;;;;;;;;;;;;;21.87;40.72;103088.88;3100658;28;114012;-61
2021/03/17 06:54:25;;;;;;;;;;;;;;;21.88;40.41;103091.44;3099865;28;114513;-60
2021/03/17 06:56:09;;;;;;;;;;;;;;;21.92;40.44;103088.94;3099166;28;116035;-60
2021/03/17 06:57:44;;;;;;;;;;;;;;;21.95;40.44;103083.63;3093715;28;115699;-61
2021/03/17 06:59:16;;;;;;;;;;;;;;;21.98;40.33;103085.94;3095677;28;115711;-61
2021/03/17 07:00:47;;;;;;;;;;;;;;;22.02;40.39;103081.47;3093665;28;116094;-60
2021/03/17 07:02:19;;;;;;;;;;;;;;;22.05;40.55;103078.13;3095628;28;116893;-59
2021/03/17 07:03:53;;;;;;;;;;;;;;;22.06;40.38;103074.19;3097262;28;115797;-59
2021/03/17 07:05:34;;;;;;;;;;;;;;;22.11;40.29;103081.84;3085291;28;114929;-60
2021/03/17 07:07:05;;;;;;;;;;;;;;;22.13;40.06;103079.59;3090669;28;115994;-60
2021/03/17 07:08:36;;;;;;;;;;;;;;;22.16;39.69;103084.69;3098310;28;115825;-59
2021/03/17 07:10:09;;;;;;;;;;;;;;;22.18;39.92;103090.91;3085978;28;116105;-60
2021/03/17 07:11:40;;;;;;;;;;;;;;;22.20;39.78;103080.22;3088951;28;115022;-60
2021/03/17 07:13:13;;;;;;;;;;;;;;;22.22;39.64;103080.78;3097197;28;114790;-62
2021/03/17 07:14:45;;;;;;;;;;;;;;;22.27;39.68;103080.00;3100519;28;115729;-60
2021/03/17 07:16:27;;;;;;;;;;;;;;;22.29;39.42;103084.25;3118071;27;116783;-60
2021/03/17 07:18:23;;;;;;;;;;;;;;;22.32;39.51;103078.06;3108641;27;117387;-61
2021/03/17 07:19:55;;;;;;;;;;;;;;;22.35;39.65;103073.88;3103184;27;114380;-61
2021/03/17 07:21:31;;;;;;;;;;;;;;;22.37;39.74;103075.31;3092645;28;116433;-59
2021/03/17 07:23:12;;;;;;;;;;;;;;;22.39;39.81;103072.22;3105295;27;113930;-59
2021/03/17 07:24:44;;;;;;;;;;;;;;;22.39;39.84;103067.44;3090254;28;113672;-60
2021/03/17 07:26:17;;;;;;;;;;;;;;;22.39;39.81;103067.44;3109162;27;113682;-60
2021/03/17 07:27:56;;;;;;;;;;;;;;;22.40;39.53;103069.13;3095310;28;113738;-59
2021/03/17 07:29:28;;;;;;;;;;;;;;;22.41;39.88;103076.47;3110385;27;113818;-59
2021/03/17 07:31:11;;;;;;;;;;;;;;;22.42;39.59;103092.25;3095745;28;113756;-60
2021/03/17 07:32:53;;;;;;;;;;;;;;;22.44;39.61;103104.06;3109285;27;113999;-60
2021/03/17 07:34:26;;;;;;;;;;;;;;;22.43;39.82;103105.22;3091006;28;113945;-60
2021/03/17 07:35:58;;;;;;;;;;;;;;;22.42;39.68;103117.59;3108927;27;114122;-60
2021/03/17 07:37:30;;;;;;;;;;;;;;;22.44;39.50;103123.78;3082361;28;114086;-59
2021/03/17 07:39:06;;;;;;;;;;;;;;;22.43;39.53;103122.13;3077659;28;113848;-60
2021/03/17 07:40:39;;;;;;;;;;;;;;;22.44;39.59;103120.16;3085721;28;113888;-60
2021/03/17 07:42:13;;;;;;;;;;;;;;;22.44;39.46;103120.16;3074820;28;113926;-59
2021/03/17 07:43:44;;;;;;;;;;;;;;;22.43;39.49;103113.66;3103455;28;113820;-59
2021/03/17 07:45:16;;;;;;;;;;;;;;;22.43;39.49;103124.09;3081325;28;114010;-59
2021/03/17 07:46:50;;;;;;;;;;;;;;;22.45;39.74;103124.66;3070590;28;114934;-60
2021/03/17 07:48:41;;;;;;;;;;;;;;;22.47;39.71;103126.09;3098296;28;115105;-59
2021/03/17 07:50:13;;;;;;;;;;;;;;;22.48;39.65;103132.59;3070819;28;114705;-59
2021/03/17 07:51:47;;;;;;;;;;;;;;;22.47;39.70;103126.09;3074679;28;114956;-59
2021/03/17 07:53:27;;;;;;;;;;;;;;;22.48;40.01;103133.44;3073103;28;114014;-59